createdAt,value
2018-08-23T00:01:15.115Z,11.54
2018-08-23T00:03:42.847Z,11.51
2018-08-23T00:06:10.530Z,11.53
2018-08-23T00:08:38.307Z,11.52
2018-08-23T00:11:06.040Z,11.52
2018-08-23T00:13:39.305Z,11.50
2018-08-23T00:16:07.492Z,11.49
2018-08-23T00:18:35.140Z,11.46
2018-08-23T00:21:03.215Z,11.45
2018-08-23T00:23:30.884Z,11.45
2018-08-23T00:25:58.652Z,11.45
2018-08-23T00:28:26.332Z,11.43
2018-08-23T00:30:53.983Z,11.43
2018-08-23T00:33:21.665Z,11.43
2018-08-23T00:35:49.329Z,11.43
2018-08-23T00:38:17.227Z,11.45
2018-08-23T00:40:45.114Z,11.46
2018-08-23T00:43:13.736Z,11.47
2018-08-23T00:45:41.450Z,11.46
2018-08-23T00:48:09.124Z,11.48
2018-08-23T00:50:59.856Z,11.48
2018-08-23T00:53:28.742Z,11.49
2018-08-23T00:56:12.488Z,11.50
2018-08-23T00:58:43.928Z,11.49
2018-08-23T01:01:13.076Z,11.50
2018-08-23T01:03:40.921Z,11.50
2018-08-23T01:06:08.608Z,11.50
2018-08-23T01:08:36.296Z,11.51
2018-08-23T01:11:05.325Z,11.51
2018-08-23T01:13:33.054Z,11.52
2018-08-23T01:16:00.744Z,11.51
2018-08-23T01:18:28.423Z,11.52
2018-08-23T01:20:56.109Z,11.52
2018-08-23T01:23:23.772Z,11.51
2018-08-23T01:25:51.828Z,11.51
2018-08-23T01:28:19.560Z,11.51
2018-08-23T01:30:48.075Z,11.49
2018-08-23T01:33:17.080Z,11.51
2018-08-23T01:35:45.760Z,11.50
2018-08-23T01:38:14.040Z,11.50
2018-08-23T01:40:41.921Z,11.51
2018-08-23T01:43:09.587Z,11.51
2018-08-23T01:45:37.273Z,11.52
2018-08-23T01:48:06.461Z,11.51
2018-08-23T01:50:34.231Z,11.51
2018-08-23T01:53:01.952Z,11.53
2018-08-23T01:55:29.644Z,11.53
2018-08-23T01:57:57.351Z,11.56
2018-08-23T02:00:28.057Z,11.58
2018-08-23T02:02:55.819Z,11.61
2018-08-23T02:05:23.679Z,11.60
2018-08-23T02:07:51.427Z,11.61
2018-08-23T02:10:19.139Z,11.63
2018-08-23T02:12:51.007Z,11.65
2018-08-23T02:15:18.976Z,11.63
2018-08-23T02:17:53.027Z,11.63
2018-08-23T02:20:21.109Z,11.64
2018-08-23T02:22:48.808Z,11.63
2018-08-23T02:25:16.523Z,11.64
2018-08-23T02:27:58.252Z,11.64
2018-08-23T02:30:39.757Z,11.65
2018-08-23T02:33:07.576Z,11.68
2018-08-23T02:35:35.573Z,11.67
2018-08-23T02:38:03.379Z,11.66
2018-08-23T02:40:32.343Z,11.66
2018-08-23T02:43:00.004Z,11.65
2018-08-23T02:45:36.159Z,11.67
2018-08-23T02:48:04.744Z,11.68
2018-08-23T02:50:32.485Z,11.69
2018-08-23T02:53:06.105Z,11.70
2018-08-23T02:55:37.575Z,11.70
2018-08-23T02:58:05.388Z,11.72
2018-08-23T03:00:38.724Z,11.74
2018-08-23T03:03:06.488Z,11.74
2018-08-23T03:05:38.336Z,11.74
2018-08-23T03:08:06.008Z,11.76
2018-08-23T03:10:33.888Z,11.76
2018-08-23T03:13:01.564Z,11.77
2018-08-23T03:15:29.228Z,11.79
2018-08-23T03:17:56.955Z,11.79
2018-08-23T03:20:24.639Z,11.78
2018-08-23T03:22:53.782Z,11.79
2018-08-23T03:25:22.695Z,11.79
2018-08-23T03:27:51.702Z,11.78
2018-08-23T03:30:19.981Z,11.79
2018-08-23T03:32:47.698Z,11.81
2018-08-23T03:35:15.441Z,11.83
2018-08-23T03:37:43.103Z,11.84
2018-08-23T03:40:11.905Z,11.84
2018-08-23T03:42:39.689Z,11.87
2018-08-23T03:45:12.845Z,11.87
2018-08-23T03:47:46.148Z,11.87
2018-08-23T03:50:13.840Z,11.88
2018-08-23T03:52:46.040Z,11.93
2018-08-23T03:55:16.740Z,11.96
2018-08-23T03:57:50.127Z,11.99
2018-08-23T04:00:22.847Z,12.02
2018-08-23T04:02:50.501Z,12.04
2018-08-23T04:05:18.180Z,12.07
2018-08-23T04:07:45.894Z,12.11
2018-08-23T04:10:13.620Z,12.13
2018-08-23T04:12:42.545Z,12.15
2018-08-23T04:15:23.054Z,12.18
2018-08-23T04:17:51.111Z,12.18
2018-08-23T04:20:18.916Z,12.19
2018-08-23T04:22:46.618Z,12.20
2018-08-23T04:25:14.372Z,12.20
2018-08-23T04:27:42.048Z,12.20
2018-08-23T04:30:10.232Z,12.23
2018-08-23T04:32:41.807Z,12.27
2018-08-23T04:35:17.920Z,12.31
2018-08-23T04:37:45.630Z,12.34
2018-08-23T04:40:13.302Z,12.37
2018-08-23T04:42:41.096Z,12.43
2018-08-23T04:45:16.904Z,12.47
2018-08-23T04:47:48.915Z,12.53
2018-08-23T04:50:16.664Z,12.62
2018-08-23T04:52:44.420Z,12.73
2018-08-23T04:55:12.076Z,12.80
2018-08-23T04:57:39.784Z,12.90
2018-08-23T05:00:07.523Z,12.96
2018-08-23T05:02:35.295Z,13.00
2018-08-23T05:05:03.040Z,13.02
2018-08-23T05:07:30.726Z,13.06
2018-08-23T05:09:58.397Z,13.11
2018-08-23T05:12:26.472Z,13.17
2018-08-23T05:14:54.131Z,13.22
2018-08-23T05:17:21.791Z,13.26
2018-08-23T05:19:49.510Z,13.31
2018-08-23T05:22:17.432Z,13.35
2018-08-23T05:24:45.107Z,13.44
2018-08-23T05:27:12.792Z,13.53
2018-08-23T05:29:40.537Z,13.60
2018-08-23T05:32:08.263Z,13.62
2018-08-23T05:34:36.009Z,13.66
2018-08-23T05:37:03.810Z,13.68
2018-08-23T05:39:43.829Z,13.73
2018-08-23T05:42:11.522Z,13.81
2018-08-23T05:44:39.213Z,13.88
2018-08-23T05:47:06.952Z,13.89
2018-08-23T05:49:34.654Z,13.95
2018-08-23T05:52:02.359Z,13.95
2018-08-23T05:54:30.125Z,14.00
2018-08-23T05:56:57.826Z,14.07
2018-08-23T05:59:25.559Z,14.10
2018-08-23T06:01:53.295Z,14.14
2018-08-23T06:04:32.169Z,14.22
2018-08-23T06:06:59.904Z,14.34
2018-08-23T06:09:27.607Z,14.46
2018-08-23T06:11:55.277Z,14.59
2018-08-23T06:14:23.101Z,14.67
2018-08-23T06:16:56.487Z,14.70
2018-08-23T06:19:24.915Z,14.76
2018-08-23T06:21:52.637Z,14.90
2018-08-23T06:24:20.345Z,15.04
2018-08-23T06:26:50.029Z,15.20
2018-08-23T06:29:21.798Z,15.24
2018-08-23T06:32:01.717Z,15.40
2018-08-23T06:34:32.347Z,15.65
2018-08-23T06:37:00.064Z,16.11
2018-08-23T06:39:27.796Z,16.20
2018-08-23T06:41:58.019Z,16.51
2018-08-23T06:44:45.725Z,16.90
2018-08-23T06:47:14.847Z,17.30
2018-08-23T06:49:43.629Z,17.53
2018-08-23T06:52:12.988Z,17.84
2018-08-23T06:54:40.991Z,18.05
2018-08-23T06:57:08.994Z,18.26
2018-08-23T06:59:37.287Z,18.29
2018-08-23T07:02:05.088Z,18.22
2018-08-23T07:04:32.803Z,18.49
2018-08-23T07:07:00.555Z,18.82
2018-08-23T07:09:28.300Z,18.98
2018-08-23T07:12:04.712Z,19.29
2018-08-23T07:14:33.756Z,19.42
2018-08-23T07:17:16.950Z,19.57
2018-08-23T07:19:44.888Z,19.61
2018-08-23T07:22:20.897Z,19.69
2018-08-23T07:24:49.320Z,19.76
2018-08-23T07:27:18.138Z,19.89
2018-08-23T07:29:48.182Z,20.11
2018-08-23T07:32:17.035Z,20.26
2018-08-23T07:35:08.983Z,20.30
2018-08-23T07:37:38.063Z,20.50
2018-08-23T07:40:08.861Z,20.68
2018-08-23T07:42:37.437Z,20.86
2018-08-23T07:45:05.794Z,20.94
2018-08-23T07:47:35.768Z,20.78
2018-08-23T07:50:03.685Z,20.97
2018-08-23T07:52:32.300Z,21.12
2018-08-23T07:55:01.962Z,21.35
2018-08-23T07:57:31.846Z,21.31
2018-08-23T08:00:01.895Z,21.50
2018-08-23T08:02:29.812Z,21.68
2018-08-23T08:04:58.092Z,21.93
2018-08-23T08:07:31.137Z,22.14
2018-08-23T08:10:01.822Z,21.97
2018-08-23T08:12:39.078Z,21.78
2018-08-23T08:15:09.456Z,21.96
2018-08-23T08:17:37.139Z,22.00
2018-08-23T08:20:06.266Z,22.20
2018-08-23T08:22:34.040Z,22.23
2018-08-23T08:25:05.239Z,22.25
2018-08-23T08:27:32.924Z,22.15
2018-08-23T08:30:00.717Z,22.18
2018-08-23T08:32:28.436Z,22.33
2018-08-23T08:34:57.888Z,22.33
2018-08-23T08:37:26.057Z,22.50
2018-08-23T08:39:53.837Z,22.55
2018-08-23T08:42:29.676Z,22.55
2018-08-23T08:45:06.161Z,22.47
2018-08-23T08:47:33.876Z,22.47
2018-08-23T08:50:01.601Z,22.38
2018-08-23T08:52:29.692Z,22.56
2018-08-23T08:54:57.409Z,22.63
2018-08-23T08:57:30.078Z,22.81
2018-08-23T08:59:57.844Z,22.68
2018-08-23T09:02:25.601Z,22.53
2018-08-23T09:04:53.442Z,22.66
2018-08-23T09:07:25.744Z,22.54
2018-08-23T09:09:53.636Z,22.75
2018-08-23T09:12:21.383Z,23.06
2018-08-23T09:14:49.089Z,23.30
2018-08-23T09:17:49.886Z,23.33
2018-08-23T09:20:18.709Z,23.63
2018-08-23T09:22:48.439Z,23.66
2018-08-23T09:25:21.840Z,23.76
2018-08-23T09:27:50.230Z,23.76
2018-08-23T09:30:23.477Z,23.81
2018-08-23T09:32:51.230Z,23.91
2018-08-23T09:35:20.276Z,24.01
2018-08-23T09:37:52.453Z,24.09
2018-08-23T09:40:20.913Z,24.35
2018-08-23T09:42:48.707Z,24.23
2018-08-23T09:45:17.729Z,23.99
2018-08-23T09:47:45.468Z,23.85
2018-08-23T09:50:13.201Z,24.07
2018-08-23T09:52:43.562Z,23.92
2018-08-23T09:55:12.641Z,24.32
2018-08-23T09:57:40.726Z,24.82
2018-08-23T10:00:09.985Z,24.93
2018-08-23T10:02:43.313Z,24.91
2018-08-23T10:05:16.897Z,24.90
2018-08-23T10:07:50.245Z,24.51
2018-08-23T10:10:23.635Z,24.80
2018-08-23T10:12:56.900Z,24.94
2018-08-23T10:15:30.127Z,24.82
2018-08-23T10:18:03.401Z,24.77
2018-08-23T10:21:08.044Z,24.70
2018-08-23T10:23:35.784Z,24.93
2018-08-23T10:26:09.100Z,24.77
2018-08-23T10:28:42.556Z,24.51
2018-08-23T10:31:10.320Z,24.65
2018-08-23T10:33:38.051Z,24.88
2018-08-23T10:36:05.868Z,25.07
2018-08-23T10:38:33.617Z,24.70
2018-08-23T10:41:05.320Z,24.59
2018-08-23T10:43:38.587Z,24.69
2018-08-23T10:46:06.672Z,24.94
2018-08-23T10:48:34.402Z,24.50
2018-08-23T10:51:02.245Z,24.77
2018-08-23T10:53:30.007Z,25.06
2018-08-23T10:55:57.704Z,25.13
2018-08-23T10:58:25.434Z,24.98
2018-08-23T11:00:53.200Z,25.01
2018-08-23T11:03:20.913Z,25.15
2018-08-23T11:05:48.676Z,25.30
2018-08-23T11:08:21.929Z,25.23
2018-08-23T11:10:55.206Z,24.89
2018-08-23T11:13:28.597Z,24.67
2018-08-23T11:16:01.985Z,24.38
2018-08-23T11:18:35.405Z,23.84
2018-08-23T11:21:03.143Z,24.15
2018-08-23T11:23:30.876Z,24.28
2018-08-23T11:25:58.669Z,24.36
2018-08-23T11:28:26.908Z,24.28
2018-08-23T11:30:59.135Z,24.35
2018-08-23T11:33:26.879Z,24.29
2018-08-23T11:35:54.671Z,24.39
2018-08-23T11:38:22.376Z,24.50
2018-08-23T11:40:50.148Z,24.63
2018-08-23T11:43:17.910Z,24.74
2018-08-23T11:45:45.730Z,24.87
2018-08-23T11:48:13.435Z,25.02
2018-08-23T11:50:41.186Z,24.81
2018-08-23T11:53:08.979Z,24.35
2018-08-23T11:55:36.649Z,24.41
2018-08-23T11:58:04.493Z,24.34
2018-08-23T12:00:32.213Z,23.93
2018-08-23T12:02:59.900Z,23.84
2018-08-23T12:05:27.605Z,24.00
2018-08-23T12:07:55.415Z,24.11
2018-08-23T12:10:24.167Z,23.88
2018-08-23T12:12:53.095Z,23.77
2018-08-23T12:15:23.858Z,23.63
2018-08-23T12:17:52.175Z,23.16
2018-08-23T12:20:19.971Z,22.96
2018-08-23T12:22:47.752Z,23.09
2018-08-23T12:25:15.540Z,22.86
2018-08-23T12:27:47.788Z,22.55
2018-08-23T12:30:15.555Z,22.50
2018-08-23T12:32:43.280Z,22.91
2018-08-23T12:35:11.012Z,23.29
2018-08-23T12:37:44.397Z,23.72
2018-08-23T12:40:17.762Z,24.05
2018-08-23T12:42:49.955Z,23.99
2018-08-23T12:45:17.730Z,23.85
2018-08-23T12:47:45.429Z,23.42
2018-08-23T12:50:13.267Z,23.39
2018-08-23T12:52:41.646Z,23.57
2018-08-23T12:55:10.278Z,23.78
2018-08-23T12:57:38.025Z,23.54
2018-08-23T13:00:05.880Z,23.15
2018-08-23T13:02:33.644Z,23.21
2018-08-23T13:05:01.337Z,23.42
2018-08-23T13:07:29.057Z,23.47
2018-08-23T13:09:56.769Z,23.27
2018-08-23T13:12:24.452Z,23.25
2018-08-23T13:14:52.217Z,22.86
2018-08-23T13:17:19.921Z,22.74
2018-08-23T13:19:50.935Z,22.55
2018-08-23T13:22:24.428Z,22.32
2018-08-23T13:24:57.789Z,22.04
2018-08-23T13:27:29.989Z,21.99
2018-08-23T13:29:57.924Z,21.89
2018-08-23T13:32:25.960Z,21.94
2018-08-23T13:34:53.694Z,21.82
2018-08-23T13:37:21.420Z,21.59
2018-08-23T13:39:49.245Z,21.44
2018-08-23T13:42:17.040Z,21.30
2018-08-23T13:44:44.812Z,21.31
2018-08-23T13:47:12.568Z,20.94
2018-08-23T13:49:40.319Z,20.74
2018-08-23T13:52:08.145Z,20.77
2018-08-23T13:54:36.043Z,20.58
2018-08-23T13:57:03.842Z,20.65
2018-08-23T13:59:31.604Z,20.56
2018-08-23T14:01:59.430Z,20.38
2018-08-23T14:04:27.153Z,20.28
2018-08-23T14:06:54.911Z,20.42
2018-08-23T14:09:22.695Z,20.44
2018-08-23T14:11:50.415Z,20.55
2018-08-23T14:14:18.172Z,20.71
2018-08-23T14:16:45.945Z,20.78
2018-08-23T14:19:13.750Z,20.66
2018-08-23T14:21:41.520Z,20.39
2018-08-23T14:24:09.312Z,20.31
2018-08-23T14:26:37.085Z,20.16
2018-08-23T14:29:05.049Z,20.11
2018-08-23T14:31:32.813Z,19.99
2018-08-23T14:34:00.666Z,19.89
2018-08-23T14:36:28.501Z,19.74
2018-08-23T14:38:56.296Z,19.77
2018-08-23T14:41:24.046Z,19.58
2018-08-23T14:43:51.750Z,19.39
2018-08-23T14:46:25.123Z,19.35
2018-08-23T14:48:52.819Z,19.26
2018-08-23T14:51:20.535Z,19.24
2018-08-23T14:53:48.756Z,19.15
2018-08-23T14:57:26.230Z,19.09
2018-08-23T14:59:53.970Z,19.00
2018-08-23T15:02:21.738Z,18.89
2018-08-23T15:04:49.440Z,18.76
2018-08-23T15:07:17.516Z,18.59
2018-08-23T15:09:45.418Z,18.47
2018-08-23T15:12:13.152Z,18.35
2018-08-23T15:14:41.072Z,18.23
2018-08-23T15:17:09.441Z,18.10
2018-08-23T15:19:37.272Z,18.00
2018-08-23T15:22:05.286Z,17.93
2018-08-23T15:24:33.047Z,17.91
2018-08-23T15:27:00.809Z,17.91
2018-08-23T15:29:28.670Z,17.82
2018-08-23T15:31:56.436Z,17.66
2018-08-23T15:34:24.162Z,17.66
2018-08-23T15:36:51.989Z,17.52
2018-08-23T15:39:19.730Z,17.44
2018-08-23T15:41:47.437Z,17.42
2018-08-23T15:44:15.200Z,17.34
2018-08-23T15:46:47.742Z,17.23
2018-08-23T15:49:15.780Z,17.14
2018-08-23T15:51:44.200Z,17.10
2018-08-23T15:54:15.711Z,17.01
2018-08-23T15:56:43.460Z,16.88
2018-08-23T15:59:11.343Z,16.75
2018-08-23T16:01:39.116Z,16.66
2018-08-23T16:04:06.839Z,16.63
2018-08-23T16:06:34.548Z,16.55
2018-08-23T16:09:02.351Z,16.43
2018-08-23T16:11:30.136Z,16.35
2018-08-23T16:13:57.868Z,16.30
2018-08-23T16:16:31.241Z,16.28
2018-08-23T16:19:04.496Z,16.21
2018-08-23T16:21:36.439Z,16.15
2018-08-23T16:24:04.224Z,16.06
2018-08-23T16:26:37.440Z,15.99
2018-08-23T16:29:05.281Z,15.93
2018-08-23T16:31:33.020Z,15.92
2018-08-23T16:34:00.905Z,15.91
2018-08-23T16:36:28.667Z,15.85
2018-08-23T16:38:56.396Z,15.83
2018-08-23T16:41:24.182Z,15.82
2018-08-23T16:43:51.930Z,15.84
2018-08-23T16:46:19.712Z,15.82
2018-08-23T16:48:47.442Z,15.82
2018-08-23T16:51:15.543Z,15.77
2018-08-23T16:53:43.680Z,15.73
2018-08-23T16:56:11.417Z,15.67
2018-08-23T16:58:39.241Z,15.60
2018-08-23T17:01:07.073Z,15.53
2018-08-23T17:03:34.847Z,15.44
2018-08-23T17:06:02.583Z,15.37
2018-08-23T17:08:30.416Z,15.30
2018-08-23T17:10:58.173Z,15.27
2018-08-23T17:13:31.418Z,15.23
2018-08-23T17:16:04.955Z,15.11
2018-08-23T17:18:32.754Z,15.04
2018-08-23T17:21:00.437Z,14.96
2018-08-23T17:23:28.215Z,14.89
2018-08-23T17:25:55.925Z,14.85
2018-08-23T17:28:23.686Z,14.74
2018-08-23T17:30:51.430Z,14.65
2018-08-23T17:33:19.344Z,14.57
2018-08-23T17:35:47.192Z,14.54
2018-08-23T17:38:14.911Z,14.32
2018-08-23T17:40:42.665Z,14.32
2018-08-23T17:43:10.429Z,14.25
2018-08-23T17:45:38.141Z,14.15
2018-08-23T17:48:05.961Z,14.03
2018-08-23T17:50:33.739Z,13.89
2018-08-23T17:53:01.622Z,13.75
2018-08-23T17:55:29.378Z,13.61
2018-08-23T17:57:57.182Z,13.50
2018-08-23T18:00:25.020Z,13.44
2018-08-23T18:02:52.763Z,13.35
2018-08-23T18:05:20.481Z,13.28
2018-08-23T18:07:48.235Z,13.11
2018-08-23T18:10:15.977Z,12.96
2018-08-23T18:12:43.704Z,12.84
2018-08-23T18:15:11.412Z,12.73
2018-08-23T18:17:39.846Z,12.65
2018-08-23T18:20:07.772Z,12.52
2018-08-23T18:22:35.908Z,12.41
2018-08-23T18:25:03.720Z,12.28
2018-08-23T18:27:31.443Z,12.16
2018-08-23T18:29:59.158Z,12.10
2018-08-23T18:32:26.963Z,12.07
2018-08-23T18:34:54.778Z,12.02
2018-08-23T18:37:22.521Z,11.89
2018-08-23T18:39:50.245Z,11.80
2018-08-23T18:42:17.958Z,11.73
2018-08-23T18:44:45.725Z,11.65
2018-08-23T18:47:13.819Z,11.56
2018-08-23T18:49:41.537Z,11.50
2018-08-23T18:52:09.284Z,11.50
2018-08-23T18:54:36.991Z,11.41
2018-08-23T18:57:05.316Z,11.37
2018-08-23T18:59:33.140Z,11.28
2018-08-23T19:02:00.863Z,11.20
2018-08-23T19:04:28.600Z,11.14
2018-08-23T19:06:56.428Z,11.11
2018-08-23T19:09:24.119Z,11.09
2018-08-23T19:11:51.862Z,11.01
2018-08-23T19:14:19.614Z,10.93
2018-08-23T19:16:52.812Z,10.88
2018-08-23T19:19:20.521Z,10.82
2018-08-23T19:21:48.201Z,10.73
2018-08-23T19:24:15.944Z,10.62
2018-08-23T19:26:43.721Z,10.58
2018-08-23T19:29:11.456Z,10.55
2018-08-23T19:31:39.189Z,10.51
2018-08-23T19:34:06.896Z,10.46
2018-08-23T19:36:34.676Z,10.36
2018-08-23T19:39:02.479Z,10.24
2018-08-23T19:41:30.197Z,10.23
2018-08-23T19:43:57.892Z,10.21
2018-08-23T19:46:31.256Z,10.19
2018-08-23T19:49:04.520Z,10.18
2018-08-23T19:51:32.256Z,10.13
2018-08-23T19:54:00.003Z,10.11
2018-08-23T19:56:27.679Z,10.08
2018-08-23T19:58:55.355Z,10.07
2018-08-23T20:01:23.077Z,10.06
2018-08-23T20:03:50.756Z,10.05
2018-08-23T20:06:18.532Z,10.02
2018-08-23T20:08:46.244Z,9.96
2018-08-23T20:11:13.916Z,9.93
2018-08-23T20:13:41.656Z,9.88
2018-08-23T20:16:09.390Z,9.79
2018-08-23T20:18:37.083Z,9.73
2018-08-23T20:21:05.212Z,9.69
2018-08-23T20:23:32.923Z,9.62
2018-08-23T20:26:00.628Z,9.53
2018-08-23T20:28:28.367Z,9.44
2018-08-23T20:30:56.057Z,9.42
2018-08-23T20:33:23.768Z,9.33
2018-08-23T20:35:51.500Z,9.26
2018-08-23T20:38:19.249Z,9.22
2018-08-23T20:40:46.956Z,9.11
2018-08-23T20:43:14.653Z,9.00
2018-08-23T20:45:42.411Z,8.93
2018-08-23T20:48:10.188Z,8.83
2018-08-23T20:50:38.171Z,8.70
2018-08-23T20:53:06.109Z,8.60
2018-08-23T20:55:33.820Z,8.53
2018-08-23T20:58:01.643Z,8.44
2018-08-23T21:00:29.352Z,8.36
2018-08-23T21:02:57.025Z,8.27
2018-08-23T21:05:24.770Z,8.16
2018-08-23T21:07:52.458Z,8.13
2018-08-23T21:10:20.192Z,8.14
2018-08-23T21:12:47.872Z,8.14
2018-08-23T21:15:15.552Z,8.12
2018-08-23T21:17:43.276Z,8.08
2018-08-23T21:20:10.957Z,8.06
2018-08-23T21:22:38.644Z,8.02
2018-08-23T21:25:06.346Z,8.00
2018-08-23T21:27:34.074Z,7.98
2018-08-23T21:30:01.756Z,7.95
2018-08-23T21:32:29.468Z,7.94
2018-08-23T21:34:57.180Z,7.92
2018-08-23T21:37:24.855Z,7.92
2018-08-23T21:39:52.592Z,7.91
2018-08-23T21:42:20.335Z,7.82
2018-08-23T21:44:48.068Z,7.73
2018-08-23T21:47:15.837Z,7.68
2018-08-23T21:49:43.592Z,7.72
2018-08-23T21:52:11.277Z,7.74
2018-08-23T21:54:38.973Z,7.76
2018-08-23T21:57:06.713Z,7.77
2018-08-23T21:59:34.413Z,7.82
2018-08-23T22:02:07.805Z,7.80
2018-08-23T22:04:41.042Z,7.74
2018-08-23T22:07:08.757Z,7.70
2018-08-23T22:09:36.500Z,7.75
2018-08-23T22:12:04.236Z,7.84
2018-08-23T22:14:31.993Z,7.90
2018-08-23T22:16:59.675Z,7.96
2018-08-23T22:19:27.367Z,7.98
2018-08-23T22:21:55.116Z,8.02
2018-08-23T22:24:22.804Z,8.04
2018-08-23T22:26:50.564Z,8.07
2018-08-23T22:29:18.307Z,8.08
2018-08-23T22:31:46.008Z,8.08
2018-08-23T22:34:13.787Z,8.06
2018-08-23T22:36:41.476Z,8.09
2018-08-23T22:39:09.196Z,8.14
2018-08-23T22:41:36.889Z,8.17
2018-08-23T22:44:04.648Z,8.15
2018-08-23T22:46:32.348Z,8.10
2018-08-23T22:49:00.131Z,8.07
2018-08-23T22:51:27.917Z,8.06
2018-08-23T22:53:55.629Z,8.10
2018-08-23T22:56:23.332Z,8.15
2018-08-23T22:58:51.046Z,8.20
2018-08-23T23:01:18.771Z,8.23
2018-08-23T23:03:51.923Z,8.26
2018-08-23T23:06:19.636Z,8.27
2018-08-23T23:08:47.348Z,8.30
2018-08-23T23:11:15.064Z,8.29
2018-08-23T23:13:42.765Z,8.28
2018-08-23T23:16:10.454Z,8.28
2018-08-23T23:18:38.168Z,8.29
2018-08-23T23:21:05.924Z,8.29
2018-08-23T23:23:33.612Z,8.30
2018-08-23T23:26:01.308Z,8.33
2018-08-23T23:28:28.993Z,8.33
2018-08-23T23:30:56.896Z,8.36
2018-08-23T23:33:24.591Z,8.38
2018-08-23T23:35:52.296Z,8.38
2018-08-23T23:38:20.012Z,8.37
2018-08-23T23:40:47.690Z,8.38
2018-08-23T23:43:15.421Z,8.38
2018-08-23T23:45:43.146Z,8.38
2018-08-23T23:48:11.460Z,8.40
2018-08-23T23:50:39.208Z,8.38
2018-08-23T23:53:07.029Z,8.37
2018-08-23T23:55:34.719Z,8.42
2018-08-23T23:58:02.514Z,8.45
